createdAt,value
2022-12-18T00:05:03.649Z,12.07
2022-12-18T00:10:07.822Z,11.10
2022-12-18T00:15:11.204Z,11.13
2022-12-18T00:20:15.467Z,11.93
2022-12-18T00:25:18.285Z,10.98
2022-12-18T00:30:21.428Z,11.25
2022-12-18T00:35:25.575Z,10.75
2022-12-18T00:40:29.063Z,10.65
2022-12-18T00:45:33.505Z,10.80
2022-12-18T00:50:37.678Z,11.75
2022-12-18T00:55:42.222Z,12.02
2022-12-18T01:00:46.206Z,10.82
2022-12-18T01:05:50.426Z,11.07
2022-12-18T01:10:55.008Z,10.60
2022-12-18T01:16:00.965Z,11.02
2022-12-18T01:21:09.610Z,10.13
2022-12-18T01:26:16.576Z,11.48
2022-12-18T01:31:22.005Z,9.95
2022-12-18T01:36:28.379Z,11.10
2022-12-18T01:41:53.611Z,10.55
2022-12-18T01:46:57.016Z,10.40
2022-12-18T01:52:01.110Z,10.60
2022-12-18T01:57:03.966Z,10.88
2022-12-18T02:02:08.192Z,9.90
2022-12-18T02:07:19.039Z,9.57
2022-12-18T02:12:36.063Z,9.85
2022-12-18T02:17:43.923Z,10.05
2022-12-18T02:23:02.993Z,9.95
2022-12-18T02:28:12.277Z,8.95
2022-12-18T02:33:16.787Z,9.73
2022-12-18T02:38:20.142Z,9.65
2022-12-18T02:43:27.323Z,9.48
2022-12-18T02:48:34.987Z,9.50
2022-12-18T02:53:45.332Z,9.95
2022-12-18T02:58:58.097Z,9.77
2022-12-18T03:04:15.639Z,9.40
2022-12-18T03:09:23.345Z,10.20
2022-12-18T03:14:32.042Z,9.50
2022-12-18T03:19:36.249Z,9.38
2022-12-18T03:24:40.578Z,9.57
2022-12-18T03:29:52.640Z,9.35
2022-12-18T03:35:04.749Z,10.75
2022-12-18T03:40:12.527Z,9.25
2022-12-18T03:45:24.348Z,9.57
2022-12-18T03:50:38.422Z,8.48
2022-12-18T03:55:43.721Z,8.85
2022-12-18T04:00:51.137Z,8.27
2022-12-18T04:05:56.752Z,9.25
2022-12-18T04:11:00.039Z,8.25
2022-12-18T04:16:05.446Z,9.80
2022-12-18T04:21:09.147Z,9.20
2022-12-18T04:26:13.320Z,8.13
2022-12-18T04:31:27.431Z,7.50
2022-12-18T04:36:30.494Z,8.63
2022-12-18T04:41:33.426Z,8.90
2022-12-18T04:46:38.134Z,8.25
2022-12-18T04:51:40.910Z,8.88
2022-12-18T04:56:43.668Z,8.10
2022-12-18T05:01:47.943Z,8.95
2022-12-18T05:06:51.222Z,9.27
2022-12-18T05:11:54.662Z,9.43
2022-12-18T05:17:01.042Z,8.65
2022-12-18T05:22:05.127Z,10.88
2022-12-18T05:27:10.634Z,10.60
2022-12-18T05:32:14.743Z,10.73
2022-12-18T05:37:17.931Z,10.00
2022-12-18T05:42:21.841Z,9.55
2022-12-18T05:47:25.987Z,9.13
2022-12-18T05:52:29.810Z,8.82
2022-12-18T05:57:33.313Z,8.73
2022-12-18T06:02:37.750Z,8.55
2022-12-18T06:07:40.862Z,9.52
2022-12-18T06:12:43.694Z,9.48
2022-12-18T06:17:47.795Z,9.20
2022-12-18T06:22:50.606Z,9.85
2022-12-18T06:27:53.481Z,8.50
2022-12-18T06:32:57.632Z,8.75
2022-12-18T06:38:00.386Z,8.68
2022-12-18T06:43:03.107Z,8.57
2022-12-18T06:48:07.510Z,8.23
2022-12-18T06:53:10.263Z,8.70
2022-12-18T06:58:13.193Z,8.73
2022-12-18T07:03:17.422Z,8.38
2022-12-18T07:08:20.469Z,8.93
2022-12-18T07:13:23.268Z,9.20
2022-12-18T07:18:27.442Z,8.80
2022-12-18T07:23:30.196Z,8.77
2022-12-18T07:28:33.696Z,8.35
2022-12-18T07:33:38.531Z,8.73
2022-12-18T07:38:42.079Z,9.25
2022-12-18T07:43:45.236Z,8.43
2022-12-18T07:48:50.333Z,9.25
2022-12-18T07:53:53.852Z,8.20
2022-12-18T07:58:56.921Z,8.85
2022-12-18T08:04:01.141Z,8.20
2022-12-18T08:09:25.604Z,9.02
2022-12-18T08:14:29.728Z,9.50
2022-12-18T08:19:36.161Z,9.10
2022-12-18T08:24:39.058Z,8.45
2022-12-18T08:29:42.049Z,9.40
2022-12-18T08:34:46.188Z,7.82
2022-12-18T08:39:49.104Z,8.38
2022-12-18T08:44:52.093Z,8.20
2022-12-18T08:49:56.227Z,8.70
2022-12-18T08:54:59.129Z,8.60
2022-12-18T09:00:02.000Z,9.13
2022-12-18T09:05:07.256Z,7.40
2022-12-18T09:10:10.722Z,8.30
2022-12-18T09:15:13.602Z,7.95
2022-12-18T09:20:19.587Z,8.35
2022-12-18T09:25:22.492Z,8.60
2022-12-18T09:30:26.498Z,8.43
2022-12-18T09:35:32.364Z,8.15
2022-12-18T09:40:43.301Z,8.32
2022-12-18T09:45:49.419Z,7.60
2022-12-18T09:50:57.895Z,8.20
2022-12-18T09:56:03.830Z,8.07
2022-12-18T10:01:12.028Z,9.13
2022-12-18T10:11:35.023Z,8.27
2022-12-18T10:16:49.507Z,7.35
2022-12-18T10:22:03.133Z,7.55
2022-12-18T10:27:15.806Z,8.38
2022-12-18T10:32:20.986Z,8.00
2022-12-18T10:37:27.395Z,7.97
2022-12-18T10:42:30.389Z,8.73
2022-12-18T10:47:35.847Z,8.55
2022-12-18T10:52:45.141Z,9.13
2022-12-18T10:57:52.435Z,8.90
2022-12-18T11:02:55.730Z,8.70
2022-12-18T11:08:02.723Z,8.95
2022-12-18T11:13:19.627Z,10.63
2022-12-18T11:18:29.082Z,9.73
2022-12-18T11:23:33.375Z,9.73
2022-12-18T11:28:39.356Z,9.80
2022-12-18T11:34:11.982Z,10.35
2022-12-18T11:39:18.337Z,10.13
2022-12-18T11:44:27.121Z,10.05
2022-12-18T11:49:35.736Z,9.93
2022-12-18T11:54:39.856Z,10.13
2022-12-18T11:59:50.794Z,10.15
2022-12-18T12:05:14.251Z,11.48
2022-12-18T12:10:36.875Z,10.02
2022-12-18T12:15:50.911Z,10.23
2022-12-18T12:21:04.048Z,9.77
2022-12-18T12:26:10.795Z,10.95
2022-12-18T12:31:23.494Z,9.73
2022-12-18T12:36:37.836Z,11.98
2022-12-18T12:42:03.054Z,9.82
2022-12-18T12:47:14.134Z,9.32
2022-12-18T12:52:24.600Z,8.77
2022-12-18T12:57:36.516Z,9.35
2022-12-18T13:02:44.678Z,9.45
2022-12-18T13:07:53.137Z,9.38
2022-12-18T13:13:02.210Z,9.32
2022-12-18T13:18:15.452Z,10.65
2022-12-18T13:23:31.369Z,11.15
2022-12-18T13:28:55.627Z,11.35
2022-12-18T13:34:26.241Z,10.48
2022-12-18T13:39:35.898Z,11.60
2022-12-18T13:44:42.491Z,12.35
2022-12-18T13:49:46.428Z,11.45
2022-12-18T13:54:53.139Z,11.48
2022-12-18T13:59:59.408Z,11.48
2022-12-18T14:05:02.348Z,12.25
2022-12-18T14:10:26.022Z,12.10
2022-12-18T14:15:35.236Z,12.38
2022-12-18T14:20:42.121Z,11.60
2022-12-18T14:25:48.436Z,12.48
2022-12-18T14:30:52.654Z,12.20
2022-12-18T14:35:58.753Z,12.73
2022-12-18T14:41:04.178Z,12.75
2022-12-18T14:46:27.658Z,12.73
2022-12-18T14:51:33.306Z,13.32
2022-12-18T14:56:37.939Z,12.10
2022-12-18T15:01:49.532Z,10.95
2022-12-18T15:07:05.610Z,13.35
2022-12-18T15:12:26.613Z,13.52
2022-12-18T15:17:30.885Z,13.98
2022-12-18T15:22:37.839Z,14.52
2022-12-18T15:27:40.671Z,14.70
2022-12-18T15:32:45.690Z,14.13
2022-12-18T15:37:48.507Z,13.55
2022-12-18T15:43:13.038Z,15.27
2022-12-18T15:48:22.836Z,15.25
2022-12-18T15:53:27.133Z,15.02
2022-12-18T15:58:29.975Z,14.73
2022-12-18T16:03:34.163Z,13.43
2022-12-18T16:08:37.431Z,14.45
2022-12-18T16:13:42.669Z,13.27
2022-12-18T16:18:47.255Z,12.80
2022-12-18T16:23:50.381Z,12.55
2022-12-18T16:28:54.119Z,13.55
2022-12-18T16:39:25.244Z,12.75
2022-12-18T16:44:29.416Z,13.20
2022-12-18T16:49:32.231Z,12.73
2022-12-18T16:54:36.727Z,12.63
2022-12-18T16:59:39.573Z,12.15
2022-12-18T17:04:43.286Z,13.35
2022-12-18T17:09:47.350Z,12.63
2022-12-18T17:14:50.092Z,12.43
2022-12-18T17:19:53.943Z,11.93
2022-12-18T17:24:58.119Z,13.25
2022-12-18T17:30:00.878Z,13.82
2022-12-18T17:35:07.128Z,12.90
2022-12-18T17:40:13.109Z,11.95
2022-12-18T17:45:15.877Z,11.27
2022-12-18T17:50:18.735Z,12.25
2022-12-18T17:55:22.993Z,11.60
2022-12-18T18:00:25.828Z,13.32
2022-12-18T18:05:28.661Z,12.10
2022-12-18T18:10:33.797Z,12.27
2022-12-18T18:15:41.067Z,13.40
2022-12-18T18:20:43.827Z,12.75
2022-12-18T18:25:48.967Z,10.15
2022-12-18T18:30:52.537Z,11.80
2022-12-18T18:35:55.315Z,10.68
2022-12-18T18:41:04.002Z,10.27
2022-12-18T18:46:07.574Z,10.45
2022-12-18T18:51:15.574Z,10.75
2022-12-18T19:01:52.535Z,9.70
2022-12-18T19:06:55.838Z,9.40
2022-12-18T19:12:17.252Z,8.82
2022-12-18T19:17:23.691Z,9.50
2022-12-18T19:22:30.825Z,9.10
2022-12-18T19:27:38.463Z,9.60
2022-12-18T19:32:42.279Z,10.27
2022-12-18T19:37:45.142Z,9.88
2022-12-18T19:42:49.459Z,10.77
2022-12-18T19:47:52.226Z,8.63
2022-12-18T19:52:54.978Z,9.27
2022-12-18T19:57:59.546Z,8.68
2022-12-18T20:03:12.869Z,11.27
2022-12-18T20:08:21.240Z,9.70
2022-12-18T20:13:25.393Z,9.70
2022-12-18T20:18:30.625Z,10.63
2022-12-18T20:23:34.542Z,9.20
2022-12-18T20:28:41.333Z,9.07
2022-12-18T20:33:47.539Z,9.88
2022-12-18T20:38:54.714Z,13.23
2022-12-18T20:44:03.692Z,14.30
2022-12-18T20:49:08.682Z,9.68
2022-12-18T20:54:16.328Z,10.77
2022-12-18T20:59:25.462Z,9.10
2022-12-18T21:04:28.345Z,8.88
2022-12-18T21:09:37.269Z,11.20
2022-12-18T21:14:43.251Z,11.13
2022-12-18T21:19:46.016Z,10.73
2022-12-18T21:24:49.306Z,11.02
2022-12-18T21:29:53.494Z,11.02
2022-12-18T21:35:02.223Z,10.32
2022-12-18T21:40:06.406Z,11.30
2022-12-18T21:45:12.129Z,11.75
2022-12-18T21:50:14.984Z,10.15
2022-12-18T21:55:17.973Z,11.45
2022-12-18T22:00:22.884Z,10.65
2022-12-18T22:05:25.809Z,10.77
2022-12-18T22:10:28.626Z,10.07
2022-12-18T22:15:32.996Z,10.85
2022-12-18T22:20:35.793Z,10.85
2022-12-18T22:25:39.951Z,10.70
2022-12-18T22:30:44.491Z,11.70
2022-12-18T22:35:47.263Z,11.82
2022-12-18T22:40:51.037Z,10.98
2022-12-18T22:45:55.323Z,12.60
2022-12-18T22:50:59.490Z,12.48
2022-12-18T22:56:02.662Z,11.70
2022-12-18T23:01:09.655Z,12.48
2022-12-18T23:06:12.755Z,12.13
2022-12-18T23:11:17.492Z,12.43
2022-12-18T23:16:23.084Z,11.30
2022-12-18T23:21:26.091Z,11.73
2022-12-18T23:26:30.355Z,12.18
2022-12-18T23:31:36.824Z,11.50
2022-12-18T23:36:45.731Z,12.38
2022-12-18T23:41:53.947Z,12.45
2022-12-18T23:47:03.475Z,11.70
2022-12-18T23:52:06.453Z,12.85
2022-12-18T23:57:09.455Z,12.63
